LSZSLSZB

Guest
Details From LSZS - Samedan
To LSZB - Bern-Belp
Flight Number -
Tags generated
Created
Modified
Stats Distance 101 nm / 187 km
Max Altitude 2,700 ft / 823 m
Waypoints 3
Social Downloads 0
Likes 0
Share VATSIM

Download

Looking for another format? Having issues loading an existing format? Contact us
Advertisement - Login to hide

Notes

Basic altitude profile: - Ascent Rate: 2500ft/min - Ascent Speed: 250kts - Cruise Altitude: 35000ft - Cruise Speed: 420kts - Descent Rate: 1500ft/min - Descent Speed: 250kts

Route

LSZS PELAD LSZB

ID Type Via Altitude Latitude Longitude Leg Dist Tot Dist Heading (true) Name
O LSZS APT - 0 ft / 0 m 46.53421˚ 9.88394˚ - 0 nm - Samedan
PELAD FIX - 2,700 ft / 823 m 46.59889˚ 9.72583˚ 7 nm 7 nm 301° / 301° -
O LSZB APT - 0 ft / 0 m 46.91255˚ 7.49767˚ 93 nm 101 nm 282° / 281° Bern-Belp

Altitude Profile

Advertisement - Login to hide

LSZS

Details ICAO LSZS (SMV)
Name Samedan
Region Switzerland
Timezone Europe/Zurich (UTC+1.0)
Stats Elevation 5,600 ft / 1,707 m (AMSL)
Location 46.534207° 9.883938°
Runways 1
Magnetic Variation 2.656° E

METAR

LSZS 111150Z 20019KT 2500 -RASN VV013 02/00 Q0991 R/SNOCLO RMK K

Decode

TAF

Not found

Departure Runways

ID Width Length Bearing (true) Bearing (mag) Surface Threshold Offset Overrun Length
03 131 ft / 40 m 6,059 ft / 1,847 m 29.10° 26.44° Asphalt 0 ft / 0 m 0 ft / 0 m
21 131 ft / 40 m 6,059 ft / 1,847 m 209.10° 206.44° Asphalt 361 ft / 110 m 0 ft / 0 m

LSZB

Details ICAO LSZB (BRN)
Name Bern-Belp
Region Switzerland
Timezone Europe/Zurich (UTC+1.0)
Stats Elevation 1,672 ft / 510 m (AMSL)
Location 46.912547° 7.497672°
Runways 3
Magnetic Variation 2.081° E

METAR

LSZB 111150Z 00000KT 5000 BR SCT002 SCT022 BKN090 02/02 Q0982 R14/190195 NOSIG

Decode

TAF

Not found

Destination Runways

ID Width Length Bearing (true) Bearing (mag) Surface Threshold Offset Overrun Length
14 98 ft / 30 m 5,677 ft / 1,730 m 140.23° 138.15° Asphalt 656 ft / 200 m 0 ft / 0 m
14L 98 ft / 30 m 2,125 ft / 648 m 140.01° 137.93° Grass 0 ft / 0 m 0 ft / 0 m
14R 98 ft / 30 m 2,123 ft / 647 m 140.14° 138.06° Grass 0 ft / 0 m 0 ft / 0 m
32 98 ft / 30 m 5,677 ft / 1,730 m 320.24° 318.16° Asphalt 0 ft / 0 m 0 ft / 0 m
32L 98 ft / 30 m 2,123 ft / 647 m 320.14° 318.06° Grass 0 ft / 0 m 0 ft / 0 m
32R 98 ft / 30 m 2,125 ft / 648 m 320.01° 317.93° Grass 0 ft / 0 m 0 ft / 0 m

Approach Navaids

Runway Type Ident Frequency Range Bearing (true) Bearing (mag) Slope Elevation
14 Localiser IBE 110.10 MHz 18 nm / 33 km 140.24° 138.16° - 1,702 ft / 519 m (AMSL)
14 Glidescope IBE 110.10 MHz 10 nm / 19 km 140.24° 138.16° 4.00° 1,664 ft / 507 m (AMSL)
14 DME IBE 110.10 MHz 18 nm / 33 km - - - 1,684 ft / 513 m (AMSL)

Popular Alternatives